createdAt,value
2019-06-01T00:00:35.468Z,101370.50
2019-06-01T00:02:59.961Z,101371.06
2019-06-01T00:05:24.398Z,101367.39
2019-06-01T00:10:29.044Z,101360.30
2019-06-01T00:12:53.518Z,101364.34
2019-06-01T00:17:54.615Z,101365.81
2019-06-01T00:20:19.055Z,101357.58
2019-06-01T00:22:43.515Z,101365.77
2019-06-01T00:25:28.750Z,101357.72
2019-06-01T00:30:29.817Z,101363.56
2019-06-01T00:32:54.282Z,101359.95
2019-06-01T00:35:18.873Z,101357.74
2019-06-01T00:37:43.474Z,101361.86
2019-06-01T00:43:13.427Z,101360.84
2019-06-01T00:45:37.873Z,101359.53
2019-06-01T00:48:02.496Z,101355.21
2019-06-01T00:50:26.940Z,101361.34
2019-06-01T00:52:51.477Z,101364.16
2019-06-01T00:57:53.865Z,101363.13
2019-06-01T01:00:43.838Z,101362.02
2019-06-01T01:05:42.650Z,101367.64
2019-06-01T01:10:43.202Z,101356.75
2019-06-01T01:13:26.809Z,101355.47
2019-06-01T01:18:27.141Z,101367.54
2019-06-01T01:20:52.065Z,101353.30
2019-06-01T01:23:23.628Z,101358.63
2019-06-01T01:31:12.394Z,101358.61
2019-06-01T01:33:32.041Z,101345.19
2019-06-01T01:35:57.759Z,101357.38
2019-06-01T01:38:44.310Z,101357.20
2019-06-01T01:43:45.436Z,101351.45
2019-06-01T01:46:09.873Z,101351.49
2019-06-01T01:48:34.342Z,101355.97
2019-06-01T01:50:58.776Z,101351.91
2019-06-01T01:53:23.251Z,101352.22
2019-06-01T01:55:47.696Z,101353.15
2019-06-01T02:01:21.353Z,101348.63
2019-06-01T02:03:34.956Z,101339.55
2019-06-01T02:05:59.399Z,101345.67
2019-06-01T02:08:23.840Z,101349.56
2019-06-01T02:10:48.301Z,101350.17
2019-06-01T02:13:12.806Z,101346.09
2019-06-01T02:15:58.297Z,101349.87
2019-06-01T02:18:22.846Z,101348.46
2019-06-01T02:23:23.821Z,101343.59
2019-06-01T02:25:48.292Z,101340.98
2019-06-01T02:28:12.765Z,101337.28
2019-06-01T02:33:13.864Z,101338.08
2019-06-01T02:38:30.527Z,101341.02
2019-06-01T02:40:56.910Z,101337.94
2019-06-01T02:43:45.186Z,101341.48
2019-06-01T02:46:09.663Z,101341.66
2019-06-01T02:48:53.464Z,101346.91
2019-06-01T02:54:13.495Z,101346.39
2019-06-01T02:59:14.047Z,101351.84
2019-06-01T03:01:38.857Z,101353.62
2019-06-01T03:04:22.732Z,101357.62
2019-06-01T03:07:08.826Z,101358.72
2019-06-01T03:15:34.223Z,101371.53
2019-06-01T03:21:18.705Z,101375.87
2019-06-01T03:27:03.367Z,101371.09
2019-06-01T03:32:36.704Z,101370.72
2019-06-01T03:35:02.919Z,101371.46
2019-06-01T03:37:50.752Z,101368.91
2019-06-01T03:40:23.524Z,101367.87
2019-06-01T03:42:57.066Z,101375.50
2019-06-01T03:45:21.607Z,101376.16
2019-06-01T03:47:46.125Z,101382.27
2019-06-01T03:50:28.632Z,101380.37
2019-06-01T03:52:53.089Z,101379.24
2019-06-01T03:55:17.777Z,101376.61
2019-06-01T03:57:42.236Z,101371.64
2019-06-01T04:03:07.180Z,101380.08
2019-06-01T04:05:38.182Z,101380.01
2019-06-01T04:08:03.428Z,101381.28
2019-06-01T04:10:53.165Z,101387.06
2019-06-01T04:13:17.609Z,101391.77
2019-06-01T04:15:58.358Z,101389.03
2019-06-01T04:18:22.820Z,101390.78
2019-06-01T04:21:04.233Z,101386.89
2019-06-01T04:26:05.976Z,101396.63
2019-06-01T04:28:53.066Z,101400.52
2019-06-01T04:31:17.528Z,101388.78
2019-06-01T04:33:42.070Z,101398.65
2019-06-01T04:36:07.033Z,101399.24
2019-06-01T04:38:31.492Z,101395.55
2019-06-01T04:46:26.827Z,101401.45
2019-06-01T04:51:27.405Z,101400.48
2019-06-01T04:53:51.873Z,101390.85
2019-06-01T04:56:34.639Z,101397.42
2019-06-01T04:58:59.162Z,101398.36
2019-06-01T05:01:23.648Z,101389.66
2019-06-01T05:03:48.210Z,101391.55
2019-06-01T05:06:13.432Z,101385.01
2019-06-01T05:09:00.258Z,101386.57
2019-06-01T05:11:24.732Z,101383.49
2019-06-01T05:16:24.764Z,101390.63
2019-06-01T05:18:49.249Z,101387.62
2019-06-01T05:21:15.162Z,101382.10
2019-06-01T05:23:45.244Z,101381.86
2019-06-01T05:26:10.885Z,101383.41
2019-06-01T05:28:57.408Z,101381.40
2019-06-01T05:31:25.206Z,101386.40
2019-06-01T05:34:11.946Z,101384.89
2019-06-01T05:36:36.575Z,101381.39
2019-06-01T05:39:01.024Z,101378.59
2019-06-01T05:44:19.070Z,101382.05
2019-06-01T05:46:43.819Z,101385.03
2019-06-01T05:49:08.287Z,101385.81
2019-06-01T05:51:32.887Z,101385.50
2019-06-01T05:53:58.950Z,101380.47
2019-06-01T05:58:59.482Z,101383.14
2019-06-01T06:01:23.945Z,101386.71
2019-06-01T06:06:40.957Z,101380.82
2019-06-01T06:09:26.214Z,101384.69
2019-06-01T06:12:07.192Z,101386.91
2019-06-01T06:14:31.640Z,101386.43
2019-06-01T06:16:56.170Z,101398.55
2019-06-01T06:19:22.705Z,101393.72
2019-06-01T06:22:08.966Z,101398.30
2019-06-01T06:24:33.438Z,101396.42
2019-06-01T06:26:57.891Z,101395.48
2019-06-01T06:32:17.512Z,101386.27
2019-06-01T06:34:41.987Z,101386.55
2019-06-01T06:37:06.528Z,101384.70
2019-06-01T06:39:31.016Z,101390.01
2019-06-01T06:41:55.469Z,101387.70
2019-06-01T06:44:20.603Z,101381.44
2019-06-01T06:46:51.808Z,101383.59
2019-06-01T06:49:17.077Z,101385.64
2019-06-01T06:51:47.867Z,101386.55
2019-06-01T06:54:14.581Z,101382.19
2019-06-01T06:57:00.123Z,101376.12
2019-06-01T06:59:40.983Z,101347.27
2019-06-01T07:02:05.517Z,101380.38
2019-06-01T07:04:30.001Z,101381.47
2019-06-01T07:06:54.520Z,101381.99
2019-06-01T07:09:19.951Z,101384.89
2019-06-01T07:12:08.483Z,101387.73
2019-06-01T07:14:32.971Z,101388.94
2019-06-01T07:16:57.420Z,101385.05
2019-06-01T07:19:21.920Z,101383.61
2019-06-01T07:21:46.382Z,101393.99
2019-06-01T07:24:10.841Z,101387.11
2019-06-01T07:26:35.428Z,101399.33
2019-06-01T07:31:36.266Z,101394.03
2019-06-01T07:34:00.748Z,101383.84
2019-06-01T07:36:26.586Z,101386.03
2019-06-01T07:38:56.664Z,101387.47
2019-06-01T07:41:21.118Z,101390.13
2019-06-01T07:43:45.599Z,101384.61
2019-06-01T07:46:10.062Z,101378.18
2019-06-01T07:48:34.548Z,101380.48
2019-06-01T07:50:59.000Z,101383.14
2019-06-01T07:53:24.052Z,101388.55
2019-06-01T07:55:55.749Z,101389.30
2019-06-01T07:58:20.819Z,101381.66
2019-06-01T08:00:52.070Z,101384.98
2019-06-01T08:06:09.243Z,101378.70
2019-06-01T08:11:32.176Z,101376.48
2019-06-01T08:19:26.353Z,101372.88
2019-06-01T08:24:43.599Z,101362.72
2019-06-01T08:27:08.033Z,101371.95
2019-06-01T08:29:32.882Z,101375.09
2019-06-01T08:34:49.768Z,101376.49
2019-06-01T08:37:31.432Z,101366.03
2019-06-01T08:39:59.118Z,101363.77
2019-06-01T08:42:47.490Z,101363.27
2019-06-01T08:47:47.721Z,101366.51
2019-06-01T08:53:11.809Z,101361.52
2019-06-01T08:55:55.654Z,101359.39
2019-06-01T08:58:20.095Z,101355.59
2019-06-01T09:00:44.699Z,101363.09
2019-06-01T09:03:09.143Z,101361.31
2019-06-01T09:08:28.920Z,101352.12
2019-06-01T09:10:53.515Z,101350.38
2019-06-01T09:13:17.963Z,101340.87
2019-06-01T09:15:42.506Z,101349.01
2019-06-01T09:20:59.517Z,101341.22
2019-06-01T09:23:23.978Z,101341.61
2019-06-01T09:25:48.460Z,101344.61
2019-06-01T09:28:12.973Z,101329.72
2019-06-01T09:30:37.509Z,101327.34
2019-06-01T09:35:52.594Z,101330.57
2019-06-01T09:41:05.587Z,101330.45
2019-06-01T09:43:31.095Z,101328.36
2019-06-01T09:46:17.748Z,101322.55
2019-06-01T09:48:42.267Z,101314.57
2019-06-01T09:51:06.806Z,101321.41
2019-06-01T09:53:32.616Z,101319.76
2019-06-01T09:56:03.582Z,101322.64
2019-06-01T09:58:28.220Z,101318.31
2019-06-01T10:00:52.806Z,101320.66
2019-06-01T10:03:17.327Z,101311.74
2019-06-01T10:08:44.790Z,101310.80
2019-06-01T10:16:20.703Z,101312.11
2019-06-01T10:19:01.146Z,101302.45
2019-06-01T10:24:18.250Z,101304.98
2019-06-01T10:26:42.764Z,101298.94
2019-06-01T10:31:43.244Z,101312.36
2019-06-01T10:34:07.699Z,101302.25
2019-06-01T10:36:32.158Z,101302.56
2019-06-01T10:39:15.215Z,101295.86
2019-06-01T10:44:38.913Z,101301.22
2019-06-01T10:47:00.409Z,101288.64
2019-06-01T10:49:24.853Z,101291.11
2019-06-01T10:51:49.387Z,101283.52
2019-06-01T10:54:13.819Z,101289.59
2019-06-01T10:56:54.960Z,101285.69
2019-06-01T10:59:19.428Z,101282.62
2019-06-01T11:01:43.905Z,101293.91
2019-06-01T11:04:08.509Z,101288.78
2019-06-01T11:09:28.349Z,101285.67
2019-06-01T11:14:28.733Z,101277.73
2019-06-01T11:17:09.781Z,101288.18
2019-06-01T11:19:35.259Z,101281.04
2019-06-01T11:22:06.027Z,101280.17
2019-06-01T11:27:06.619Z,101263.06
2019-06-01T11:29:31.066Z,101271.59
2019-06-01T11:32:11.618Z,101263.83
2019-06-01T11:34:36.483Z,101257.36
2019-06-01T11:37:26.105Z,101259.81
2019-06-01T11:39:50.643Z,101259.53
2019-06-01T11:42:15.090Z,101259.16
2019-06-01T11:44:40.704Z,101252.62
2019-06-01T11:47:27.201Z,101245.06
2019-06-01T11:49:51.647Z,101254.20
2019-06-01T11:52:16.120Z,101250.25
2019-06-01T11:57:16.753Z,101233.77
2019-06-01T12:02:17.621Z,101237.65
2019-06-01T12:07:37.680Z,101235.59
2019-06-01T12:10:02.291Z,101232.09
2019-06-01T12:12:26.735Z,101236.44
2019-06-01T12:14:51.221Z,101232.09
2019-06-01T12:17:15.668Z,101233.33
2019-06-01T12:19:40.770Z,101224.84
2019-06-01T12:22:31.963Z,101225.45
2019-06-01T12:27:49.351Z,101226.52
2019-06-01T12:33:08.602Z,101221.52
2019-06-01T12:35:49.637Z,101218.30
2019-06-01T12:38:14.083Z,101211.88
2019-06-01T12:40:39.135Z,101218.09
2019-06-01T12:43:10.417Z,101211.03
2019-06-01T12:45:34.887Z,101214.50
2019-06-01T12:50:35.820Z,101194.48
2019-06-01T12:53:00.260Z,101205.42
2019-06-01T12:55:24.790Z,101195.17
2019-06-01T12:57:49.421Z,101189.41
2019-06-01T13:03:05.219Z,101203.09
2019-06-01T13:05:43.670Z,101183.22
2019-06-01T13:13:36.554Z,101170.05
2019-06-01T13:16:01.036Z,101173.70
2019-06-01T13:18:25.489Z,101171.24
2019-06-01T13:20:49.965Z,101171.00
2019-06-01T13:23:14.486Z,101175.77
2019-06-01T13:25:38.943Z,101156.65
2019-06-01T13:28:03.388Z,101164.20
2019-06-01T13:30:27.942Z,101157.61
2019-06-01T13:32:52.843Z,101160.41
2019-06-01T13:35:42.258Z,101146.09
2019-06-01T13:43:20.030Z,101148.02
2019-06-01T13:48:36.609Z,101152.34
2019-06-01T13:51:01.137Z,101149.70
2019-06-01T13:53:25.667Z,101152.43
2019-06-01T13:55:50.584Z,101142.31
2019-06-01T14:01:14.943Z,101136.28
2019-06-01T14:06:33.796Z,101144.02
2019-06-01T14:08:58.339Z,101145.58
2019-06-01T14:11:22.895Z,101138.70
2019-06-01T14:16:41.350Z,101135.65
2019-06-01T14:19:07.091Z,101135.59
2019-06-01T14:21:37.289Z,101133.84
2019-06-01T14:24:02.008Z,101124.87
2019-06-01T14:26:26.496Z,101127.16
2019-06-01T14:29:14.694Z,101127.41
2019-06-01T14:31:57.119Z,101129.25
2019-06-01T14:37:16.217Z,101132.30
2019-06-01T14:45:11.521Z,101116.38
2019-06-01T14:47:36.012Z,101115.52
2019-06-01T14:50:00.445Z,101118.44
2019-06-01T14:52:24.984Z,101114.31
2019-06-01T14:54:49.673Z,101117.09
2019-06-01T14:57:33.527Z,101112.66
2019-06-01T14:59:58.251Z,101112.31
2019-06-01T15:02:22.718Z,101114.95
2019-06-01T15:04:48.297Z,101112.20
2019-06-01T15:10:10.889Z,101109.45
2019-06-01T15:12:35.415Z,101106.59
2019-06-01T15:14:59.878Z,101109.17
2019-06-01T15:17:24.412Z,101105.76
2019-06-01T15:22:44.668Z,101102.65
2019-06-01T15:25:09.446Z,101095.25
2019-06-01T15:27:33.934Z,101101.41
2019-06-01T15:29:59.003Z,101095.73
2019-06-01T15:32:46.155Z,101093.22
2019-06-01T15:35:31.392Z,101092.44
2019-06-01T15:40:32.480Z,101093.87
2019-06-01T15:42:57.347Z,101097.63
2019-06-01T15:45:47.345Z,101094.21
2019-06-01T15:48:11.808Z,101089.06
2019-06-01T15:50:36.268Z,101088.16
2019-06-01T15:53:01.372Z,101082.81
2019-06-01T15:55:52.138Z,101082.97
2019-06-01T15:58:16.787Z,101076.94
2019-06-01T16:00:41.311Z,101080.63
2019-06-01T16:03:05.937Z,101076.20
2019-06-01T16:05:30.389Z,101083.95
2019-06-01T16:07:55.175Z,101075.48
2019-06-01T16:15:31.850Z,101082.52
2019-06-01T16:17:56.342Z,101073.48
2019-06-01T16:20:27.147Z,101075.13
2019-06-01T16:22:51.594Z,101071.02
2019-06-01T16:25:38.959Z,101067.25
2019-06-01T16:30:24.514Z,101076.20
2019-06-01T16:32:48.940Z,101073.89
2019-06-01T16:37:53.063Z,101075.77
2019-06-01T16:43:17.799Z,101071.52
2019-06-01T16:45:42.339Z,101069.42
2019-06-01T16:48:06.796Z,101072.48
2019-06-01T16:50:31.408Z,101069.79
2019-06-01T16:52:55.989Z,101063.86
2019-06-01T16:55:20.456Z,101062.41
2019-06-01T16:57:44.969Z,101060.00
2019-06-01T17:00:30.210Z,101060.36
2019-06-01T17:02:54.795Z,101054.26
2019-06-01T17:05:19.362Z,101055.70
2019-06-01T17:07:43.921Z,101062.85
2019-06-01T17:13:08.940Z,101060.97
2019-06-01T17:18:15.456Z,101061.06
2019-06-01T17:20:59.305Z,101071.70
2019-06-01T17:23:27.287Z,101066.34
2019-06-01T17:25:55.949Z,101061.43
2019-06-01T17:28:20.464Z,101060.76
2019-06-01T17:31:02.297Z,101063.48
2019-06-01T17:33:26.893Z,101062.28
2019-06-01T17:35:51.369Z,101063.73
2019-06-01T17:38:15.953Z,101058.81
2019-06-01T17:40:43.155Z,101065.56
2019-06-01T17:43:28.707Z,101061.94
2019-06-01T17:45:53.249Z,101065.95
2019-06-01T17:48:39.551Z,101060.13
2019-06-01T17:54:08.339Z,101057.22
2019-06-01T17:56:32.929Z,101059.38
2019-06-01T17:58:57.458Z,101056.35
2019-06-01T18:01:42.123Z,101053.84
2019-06-01T18:07:09.989Z,101000.91
2019-06-01T18:09:34.637Z,101052.55
2019-06-01T18:11:59.113Z,101049.54
2019-06-01T18:14:23.629Z,101047.59
2019-06-01T18:16:48.247Z,101042.16
2019-06-01T18:19:12.834Z,101046.44
2019-06-01T18:21:37.358Z,101045.38
2019-06-01T18:24:03.388Z,101051.34
2019-06-01T18:26:49.839Z,101047.17
2019-06-01T18:29:14.417Z,101048.36
2019-06-01T18:31:38.970Z,101044.42
2019-06-01T18:34:03.550Z,101050.30
2019-06-01T18:36:28.083Z,101050.12
2019-06-01T18:38:52.613Z,101053.37
2019-06-01T18:41:20.003Z,101053.45
2019-06-01T18:44:07.773Z,101054.66
2019-06-01T18:46:32.279Z,101064.20
2019-06-01T18:48:56.744Z,101054.98
2019-06-01T18:51:21.225Z,101054.84
2019-06-01T18:53:45.679Z,101054.06
2019-06-01T18:56:10.263Z,101062.98
2019-06-01T18:58:51.281Z,101058.00
2019-06-01T19:01:20.606Z,101054.88
2019-06-01T19:03:47.442Z,101055.28
2019-06-01T19:06:12.010Z,101056.84
2019-06-01T19:08:36.518Z,101057.15
2019-06-01T19:11:01.073Z,101053.23
2019-06-01T19:13:25.575Z,101057.59
2019-06-01T19:15:50.049Z,101058.19
2019-06-01T19:18:14.705Z,101059.34
2019-06-01T19:21:02.571Z,101057.67
2019-06-01T19:23:47.822Z,101057.61
2019-06-01T19:26:14.869Z,101055.34
2019-06-01T19:29:00.224Z,101063.64
2019-06-01T19:31:24.691Z,101059.09
2019-06-01T19:34:06.873Z,101064.94
2019-06-01T19:39:50.871Z,101066.87
2019-06-01T19:42:15.631Z,101065.00
2019-06-01T19:44:40.167Z,101073.16
2019-06-01T19:47:04.703Z,101068.66
2019-06-01T19:49:29.144Z,101071.02
2019-06-01T19:51:53.601Z,101076.35
2019-06-01T19:54:19.027Z,101077.49
2019-06-01T19:56:49.728Z,101093.44
2019-06-01T19:59:14.239Z,101100.28
2019-06-01T20:01:54.932Z,101102.87
2019-06-01T20:04:19.366Z,101103.34
2019-06-01T20:07:01.797Z,101109.95
2019-06-01T20:09:26.245Z,101111.81
2019-06-01T20:12:01.507Z,101111.06
2019-06-01T20:14:22.588Z,101111.53
2019-06-01T20:17:12.108Z,101120.78
2019-06-01T20:19:36.605Z,101125.77
2019-06-01T20:22:01.124Z,101123.89
2019-06-01T20:24:25.628Z,101125.05
2019-06-01T20:26:50.082Z,101122.23
2019-06-01T20:29:15.579Z,101120.08
2019-06-01T20:32:02.876Z,101122.45
2019-06-01T20:34:27.340Z,101120.30
2019-06-01T20:36:51.788Z,101122.38
2019-06-01T20:39:16.296Z,101112.91
2019-06-01T20:41:40.672Z,101120.65
2019-06-01T20:44:25.940Z,101119.00
2019-06-01T20:46:50.389Z,101121.97
2019-06-01T20:49:31.102Z,101122.38
2019-06-01T20:54:48.431Z,101115.05
2019-06-01T21:00:07.641Z,101115.83
2019-06-01T21:02:32.264Z,101117.52
2019-06-01T21:04:56.802Z,101107.47
2019-06-01T21:07:21.965Z,101118.66
2019-06-01T21:09:53.084Z,101110.28
2019-06-01T21:12:18.455Z,101117.52
2019-06-01T21:15:07.012Z,101115.58
2019-06-01T21:20:29.983Z,101118.56
2019-06-01T21:22:54.109Z,101121.54
2019-06-01T21:27:54.588Z,101135.58
2019-06-01T21:33:11.821Z,101134.00
2019-06-01T21:35:36.327Z,101134.00
2019-06-01T21:38:00.877Z,101137.99
2019-06-01T21:40:25.730Z,101137.94
2019-06-01T21:43:06.793Z,101139.20
2019-06-01T21:45:28.117Z,101141.64
2019-06-01T21:47:52.647Z,101137.21
2019-06-01T21:50:18.184Z,101137.94
2019-06-01T21:53:04.837Z,101139.52
2019-06-01T21:58:06.006Z,101137.16
2019-06-01T22:00:51.337Z,101136.61
2019-06-01T22:03:16.816Z,101134.08
2019-06-01T22:06:06.456Z,101133.79
2019-06-01T22:08:30.899Z,101127.83
2019-06-01T22:10:55.463Z,101130.95
2019-06-01T22:15:55.841Z,101120.36
2019-06-01T22:18:21.392Z,101117.87
2019-06-01T22:20:52.187Z,101123.12
2019-06-01T22:23:17.950Z,101117.45
2019-06-01T22:28:24.522Z,101115.63
2019-06-01T22:30:55.409Z,101119.28
2019-06-01T22:33:21.449Z,101125.64
2019-06-01T22:36:07.987Z,101130.02
2019-06-01T22:41:08.630Z,101124.27
2019-06-01T22:46:08.854Z,101116.79
2019-06-01T22:51:09.559Z,101108.31
2019-06-01T22:56:29.441Z,101117.55
2019-06-01T22:58:53.934Z,101113.12
2019-06-01T23:03:54.885Z,101108.73
2019-06-01T23:06:19.441Z,101114.66
2019-06-01T23:08:44.169Z,101116.03
2019-06-01T23:14:03.820Z,101113.58
2019-06-01T23:16:28.302Z,101118.81
2019-06-01T23:18:52.818Z,101117.80
2019-06-01T23:26:30.334Z,101110.78
2019-06-01T23:31:32.327Z,101114.33
2019-06-01T23:34:22.335Z,101118.95
2019-06-01T23:39:22.723Z,101111.35
2019-06-01T23:41:54.475Z,101118.38
2019-06-01T23:44:35.293Z,101114.80
2019-06-01T23:49:52.490Z,101115.59
2019-06-01T23:52:17.046Z,101119.45
2019-06-01T23:54:41.495Z,101111.91
2019-06-01T23:57:06.045Z,101119.91
